sensor_id;sensor_type;location;lat;lon;timestamp;temperature;humidity
10451;DHT22;5273;51.290;6.918;2023-04-24T00:00:38;11.00;99.90
10451;DHT22;5273;51.290;6.918;2023-04-24T00:03:12;10.80;99.90
10451;DHT22;5273;51.290;6.918;2023-04-24T00:05:39;10.90;99.90
10451;DHT22;5273;51.290;6.918;2023-04-24T00:08:06;10.80;99.90
10451;DHT22;5273;51.290;6.918;2023-04-24T00:10:33;10.70;99.90
10451;DHT22;5273;51.290;6.918;2023-04-24T00:13:01;10.70;99.90
10451;DHT22;5273;51.290;6.918;2023-04-24T00:15:28;10.70;99.90
10451;DHT22;5273;51.290;6.918;2023-04-24T00:20:22;10.60;99.90
10451;DHT22;5273;51.290;6.918;2023-04-24T00:25:16;10.60;99.90
10451;DHT22;5273;51.290;6.918;2023-04-24T00:27:43;11.00;99.90
10451;DHT22;5273;51.290;6.918;2023-04-24T00:30:11;10.40;99.90
10451;DHT22;5273;51.290;6.918;2023-04-24T00:32:38;10.40;99.90
10451;DHT22;5273;51.290;6.918;2023-04-24T00:35:06;10.40;99.90
10451;DHT22;5273;51.290;6.918;2023-04-24T00:37:33;10.30;99.90
10451;DHT22;5273;51.290;6.918;2023-04-24T00:40:00;10.30;99.90
10451;DHT22;5273;51.290;6.918;2023-04-24T00:42:27;10.30;99.90
10451;DHT22;5273;51.290;6.918;2023-04-24T00:44:53;10.20;99.90
10451;DHT22;5273;51.290;6.918;2023-04-24T00:47:22;10.30;99.90
10451;DHT22;5273;51.290;6.918;2023-04-24T00:49:50;10.20;99.90
10451;DHT22;5273;51.290;6.918;2023-04-24T00:52:16;10.20;99.90
10451;DHT22;5273;51.290;6.918;2023-04-24T00:54:44;10.20;99.90
10451;DHT22;5273;51.290;6.918;2023-04-24T00:57:11;10.70;99.90
10451;DHT22;5273;51.290;6.918;2023-04-24T00:59:39;11.40;99.90
10451;DHT22;5273;51.290;6.918;2023-04-24T01:02:06;10.10;99.90
10451;DHT22;5273;51.290;6.918;2023-04-24T01:04:35;10.30;99.90
10451;DHT22;5273;51.290;6.918;2023-04-24T01:07:02;10.30;99.90
10451;DHT22;5273;51.290;6.918;2023-04-24T01:09:30;10.40;99.90
10451;DHT22;5273;51.290;6.918;2023-04-24T01:11:57;10.40;99.90
10451;DHT22;5273;51.290;6.918;2023-04-24T01:14:24;10.70;99.90
10451;DHT22;5273;51.290;6.918;2023-04-24T01:19:19;10.30;99.90
10451;DHT22;5273;51.290;6.918;2023-04-24T01:21:47;10.60;99.90
10451;DHT22;5273;51.290;6.918;2023-04-24T01:24:19;10.30;99.90
10451;DHT22;5273;51.290;6.918;2023-04-24T01:26:46;10.30;99.90
10451;DHT22;5273;51.290;6.918;2023-04-24T01:29:12;10.30;99.90
10451;DHT22;5273;51.290;6.918;2023-04-24T01:31:39;10.30;99.90
10451;DHT22;5273;51.290;6.918;2023-04-24T01:34:06;10.20;99.90
10451;DHT22;5273;51.290;6.918;2023-04-24T01:36:34;10.10;99.90
10451;DHT22;5273;51.290;6.918;2023-04-24T01:39:01;10.00;99.90
10451;DHT22;5273;51.290;6.918;2023-04-24T01:41:30;9.80;99.90
10451;DHT22;5273;51.290;6.918;2023-04-24T01:46:24;9.70;99.90
10451;DHT22;5273;51.290;6.918;2023-04-24T01:51:19;9.50;99.90
10451;DHT22;5273;51.290;6.918;2023-04-24T01:53:45;9.70;99.90
10451;DHT22;5273;51.290;6.918;2023-04-24T01:56:12;9.50;99.90
10451;DHT22;5273;51.290;6.918;2023-04-24T01:58:42;9.30;99.90
10451;DHT22;5273;51.290;6.918;2023-04-24T02:03:36;9.30;99.90
10451;DHT22;5273;51.290;6.918;2023-04-24T02:06:03;9.00;99.90
10451;DHT22;5273;51.290;6.918;2023-04-24T02:10:57;8.80;99.90
10451;DHT22;5273;51.290;6.918;2023-04-24T02:13:24;9.20;99.90
10451;DHT22;5273;51.290;6.918;2023-04-24T02:15:52;9.20;99.90
10451;DHT22;5273;51.290;6.918;2023-04-24T02:18:18;8.90;99.90
10451;DHT22;5273;51.290;6.918;2023-04-24T02:23:13;9.30;99.90
10451;DHT22;5273;51.290;6.918;2023-04-24T02:25:40;9.40;99.90
10451;DHT22;5273;51.290;6.918;2023-04-24T02:28:07;9.30;99.90
10451;DHT22;5273;51.290;6.918;2023-04-24T02:30:34;9.30;99.90
10451;DHT22;5273;51.290;6.918;2023-04-24T02:33:02;9.40;99.90
10451;DHT22;5273;51.290;6.918;2023-04-24T02:35:30;9.10;99.90
10451;DHT22;5273;51.290;6.918;2023-04-24T02:37:56;9.40;99.90
10451;DHT22;5273;51.290;6.918;2023-04-24T02:40:23;9.40;99.90
10451;DHT22;5273;51.290;6.918;2023-04-24T02:42:50;9.90;99.90
10451;DHT22;5273;51.290;6.918;2023-04-24T02:45:17;9.80;99.90
10451;DHT22;5273;51.290;6.918;2023-04-24T02:47:44;9.50;99.90
10451;DHT22;5273;51.290;6.918;2023-04-24T02:50:12;9.50;99.90
10451;DHT22;5273;51.290;6.918;2023-04-24T02:52:39;9.00;99.90
10451;DHT22;5273;51.290;6.918;2023-04-24T02:55:06;9.60;99.90
10451;DHT22;5273;51.290;6.918;2023-04-24T02:57:33;9.50;99.90
10451;DHT22;5273;51.290;6.918;2023-04-24T03:00:00;9.50;99.90
10451;DHT22;5273;51.290;6.918;2023-04-24T03:02:27;9.60;99.90
10451;DHT22;5273;51.290;6.918;2023-04-24T03:04:53;9.60;99.90
10451;DHT22;5273;51.290;6.918;2023-04-24T03:07:22;9.50;99.90
10451;DHT22;5273;51.290;6.918;2023-04-24T03:09:49;9.80;99.90
10451;DHT22;5273;51.290;6.918;2023-04-24T03:14:43;9.60;99.90
10451;DHT22;5273;51.290;6.918;2023-04-24T03:17:10;9.60;99.90
10451;DHT22;5273;51.290;6.918;2023-04-24T03:19:37;9.80;99.90
10451;DHT22;5273;51.290;6.918;2023-04-24T03:24:32;9.80;99.90
10451;DHT22;5273;51.290;6.918;2023-04-24T03:26:59;9.60;99.90
10451;DHT22;5273;51.290;6.918;2023-04-24T03:31:53;9.50;99.90
10451;DHT22;5273;51.290;6.918;2023-04-24T03:34:20;9.60;99.90
10451;DHT22;5273;51.290;6.918;2023-04-24T03:36:46;9.50;99.90
10451;DHT22;5273;51.290;6.918;2023-04-24T03:39:14;9.40;99.90
10451;DHT22;5273;51.290;6.918;2023-04-24T03:41:42;9.80;99.90
10451;DHT22;5273;51.290;6.918;2023-04-24T03:44:08;9.50;99.90
10451;DHT22;5273;51.290;6.918;2023-04-24T03:46:35;9.50;99.90
10451;DHT22;5273;51.290;6.918;2023-04-24T03:49:02;9.50;99.90
10451;DHT22;5273;51.290;6.918;2023-04-24T03:51:29;9.50;99.90
10451;DHT22;5273;51.290;6.918;2023-04-24T03:53:56;9.60;99.90
10451;DHT22;5273;51.290;6.918;2023-04-24T03:56:23;9.50;99.90
10451;DHT22;5273;51.290;6.918;2023-04-24T03:58:51;9.50;99.90
10451;DHT22;5273;51.290;6.918;2023-04-24T04:01:18;9.50;99.90
10451;DHT22;5273;51.290;6.918;2023-04-24T04:03:46;9.40;99.90
10451;DHT22;5273;51.290;6.918;2023-04-24T04:06:13;9.50;99.90
10451;DHT22;5273;51.290;6.918;2023-04-24T04:08:40;9.50;99.90
10451;DHT22;5273;51.290;6.918;2023-04-24T04:11:06;9.50;99.90
10451;DHT22;5273;51.290;6.918;2023-04-24T04:13:33;9.50;99.90
10451;DHT22;5273;51.290;6.918;2023-04-24T04:16:01;9.50;99.90
10451;DHT22;5273;51.290;6.918;2023-04-24T04:18:28;9.50;99.90
10451;DHT22;5273;51.290;6.918;2023-04-24T04:20:55;9.40;99.90
10451;DHT22;5273;51.290;6.918;2023-04-24T04:23:22;8.90;99.90
10451;DHT22;5273;51.290;6.918;2023-04-24T04:25:49;9.50;99.90
10451;DHT22;5273;51.290;6.918;2023-04-24T04:28:17;9.50;99.90
10451;DHT22;5273;51.290;6.918;2023-04-24T04:30:45;10.00;99.90
10451;DHT22;5273;51.290;6.918;2023-04-24T04:33:13;9.40;99.90
10451;DHT22;5273;51.290;6.918;2023-04-24T04:35:41;9.40;99.90
10451;DHT22;5273;51.290;6.918;2023-04-24T04:38:08;9.10;99.90
10451;DHT22;5273;51.290;6.918;2023-04-24T04:40:36;9.40;99.90
10451;DHT22;5273;51.290;6.918;2023-04-24T04:43:03;9.40;99.90
10451;DHT22;5273;51.290;6.918;2023-04-24T04:45:30;9.40;99.90
10451;DHT22;5273;51.290;6.918;2023-04-24T04:47:58;9.50;99.90
10451;DHT22;5273;51.290;6.918;2023-04-24T04:50:27;10.60;99.90
10451;DHT22;5273;51.290;6.918;2023-04-24T04:52:54;9.50;99.90
10451;DHT22;5273;51.290;6.918;2023-04-24T04:55:21;9.40;99.90
10451;DHT22;5273;51.290;6.918;2023-04-24T04:57:48;9.40;99.90
10451;DHT22;5273;51.290;6.918;2023-04-24T05:00:15;9.80;99.90
10451;DHT22;5273;51.290;6.918;2023-04-24T05:02:42;9.40;99.90
10451;DHT22;5273;51.290;6.918;2023-04-24T05:05:09;11.10;99.90
10451;DHT22;5273;51.290;6.918;2023-04-24T05:07:37;9.30;99.90
10451;DHT22;5273;51.290;6.918;2023-04-24T05:10:04;9.30;99.90
10451;DHT22;5273;51.290;6.918;2023-04-24T05:12:31;9.20;99.90
10451;DHT22;5273;51.290;6.918;2023-04-24T05:14:58;9.20;99.90
10451;DHT22;5273;51.290;6.918;2023-04-24T05:17:25;9.10;99.90
10451;DHT22;5273;51.290;6.918;2023-04-24T05:19:52;9.10;99.90
10451;DHT22;5273;51.290;6.918;2023-04-24T05:22:19;10.60;99.90
10451;DHT22;5273;51.290;6.918;2023-04-24T05:24:48;9.00;99.90
10451;DHT22;5273;51.290;6.918;2023-04-24T05:27:14;9.00;99.90
10451;DHT22;5273;51.290;6.918;2023-04-24T05:29:41;9.00;99.90
10451;DHT22;5273;51.290;6.918;2023-04-24T05:32:09;8.90;99.90
10451;DHT22;5273;51.290;6.918;2023-04-24T05:34:35;9.10;99.90
10451;DHT22;5273;51.290;6.918;2023-04-24T05:37:03;8.90;99.90
10451;DHT22;5273;51.290;6.918;2023-04-24T05:39:33;9.00;99.90
10451;DHT22;5273;51.290;6.918;2023-04-24T05:42:02;9.90;99.90
10451;DHT22;5273;51.290;6.918;2023-04-24T05:44:30;8.90;99.90
10451;DHT22;5273;51.290;6.918;2023-04-24T05:46:57;10.40;99.90
10451;DHT22;5273;51.290;6.918;2023-04-24T05:49:23;8.90;99.90
10451;DHT22;5273;51.290;6.918;2023-04-24T05:51:50;8.90;99.90
10451;DHT22;5273;51.290;6.918;2023-04-24T05:54:17;8.90;99.90
10451;DHT22;5273;51.290;6.918;2023-04-24T05:56:44;8.90;99.90
10451;DHT22;5273;51.290;6.918;2023-04-24T05:59:13;8.90;99.90
10451;DHT22;5273;51.290;6.918;2023-04-24T06:01:40;8.80;99.90
10451;DHT22;5273;51.290;6.918;2023-04-24T06:04:07;8.90;99.90
10451;DHT22;5273;51.290;6.918;2023-04-24T06:06:35;8.80;99.90
10451;DHT22;5273;51.290;6.918;2023-04-24T06:09:01;8.80;99.90
10451;DHT22;5273;51.290;6.918;2023-04-24T06:11:29;8.80;99.90
10451;DHT22;5273;51.290;6.918;2023-04-24T06:13:56;8.80;99.90
10451;DHT22;5273;51.290;6.918;2023-04-24T06:16:24;8.80;99.90
10451;DHT22;5273;51.290;6.918;2023-04-24T06:18:51;8.80;99.90
10451;DHT22;5273;51.290;6.918;2023-04-24T06:21:17;8.90;99.90
10451;DHT22;5273;51.290;6.918;2023-04-24T06:23:44;8.80;99.90
10451;DHT22;5273;51.290;6.918;2023-04-24T06:26:12;8.80;99.90
10451;DHT22;5273;51.290;6.918;2023-04-24T06:28:39;8.80;99.90
10451;DHT22;5273;51.290;6.918;2023-04-24T06:31:05;8.80;99.90
10451;DHT22;5273;51.290;6.918;2023-04-24T06:33:34;8.80;99.90
10451;DHT22;5273;51.290;6.918;2023-04-24T06:36:00;8.80;99.90
10451;DHT22;5273;51.290;6.918;2023-04-24T06:38:29;8.80;99.90
10451;DHT22;5273;51.290;6.918;2023-04-24T06:40:56;8.80;99.90
10451;DHT22;5273;51.290;6.918;2023-04-24T06:43:23;8.80;99.90
10451;DHT22;5273;51.290;6.918;2023-04-24T06:45:50;8.70;99.90
10451;DHT22;5273;51.290;6.918;2023-04-24T06:48:16;7.90;99.90
10451;DHT22;5273;51.290;6.918;2023-04-24T06:50:44;8.70;99.90
10451;DHT22;5273;51.290;6.918;2023-04-24T06:53:12;8.70;99.90
10451;DHT22;5273;51.290;6.918;2023-04-24T06:55:40;8.70;99.90
10451;DHT22;5273;51.290;6.918;2023-04-24T06:58:07;8.70;99.90
10451;DHT22;5273;51.290;6.918;2023-04-24T07:00:34;8.70;99.90
10451;DHT22;5273;51.290;6.918;2023-04-24T07:03:01;8.40;99.90
10451;DHT22;5273;51.290;6.918;2023-04-24T07:05:27;8.70;99.90
10451;DHT22;5273;51.290;6.918;2023-04-24T07:07:56;8.70;99.90
10451;DHT22;5273;51.290;6.918;2023-04-24T07:10:24;8.70;99.90
10451;DHT22;5273;51.290;6.918;2023-04-24T07:12:52;8.80;99.90
10451;DHT22;5273;51.290;6.918;2023-04-24T07:15:19;8.70;99.90
10451;DHT22;5273;51.290;6.918;2023-04-24T07:17:46;8.80;99.90
10451;DHT22;5273;51.290;6.918;2023-04-24T07:20:13;9.70;99.90
10451;DHT22;5273;51.290;6.918;2023-04-24T07:22:41;8.80;99.90
10451;DHT22;5273;51.290;6.918;2023-04-24T07:25:09;8.80;99.90
10451;DHT22;5273;51.290;6.918;2023-04-24T07:27:36;8.80;99.90
10451;DHT22;5273;51.290;6.918;2023-04-24T07:30:03;8.80;99.90
10451;DHT22;5273;51.290;6.918;2023-04-24T07:32:30;8.90;99.90
10451;DHT22;5273;51.290;6.918;2023-04-24T07:34:57;8.90;99.90
10451;DHT22;5273;51.290;6.918;2023-04-24T07:37:24;8.80;99.90
10451;DHT22;5273;51.290;6.918;2023-04-24T07:39:51;8.80;99.90
10451;DHT22;5273;51.290;6.918;2023-04-24T07:42:19;8.80;99.90
10451;DHT22;5273;51.290;6.918;2023-04-24T07:44:46;8.70;99.90
10451;DHT22;5273;51.290;6.918;2023-04-24T07:47:13;8.70;99.90
10451;DHT22;5273;51.290;6.918;2023-04-24T07:49:41;8.60;99.90
10451;DHT22;5273;51.290;6.918;2023-04-24T07:52:08;8.60;99.90
10451;DHT22;5273;51.290;6.918;2023-04-24T07:54:35;8.50;99.90
10451;DHT22;5273;51.290;6.918;2023-04-24T07:57:02;8.50;99.90
10451;DHT22;5273;51.290;6.918;2023-04-24T07:59:31;8.40;99.90
10451;DHT22;5273;51.290;6.918;2023-04-24T08:01:57;8.40;99.90
10451;DHT22;5273;51.290;6.918;2023-04-24T08:04:26;8.80;99.90
10451;DHT22;5273;51.290;6.918;2023-04-24T08:06:53;8.30;99.90
10451;DHT22;5273;51.290;6.918;2023-04-24T08:09:19;8.40;99.90
10451;DHT22;5273;51.290;6.918;2023-04-24T08:11:46;8.30;99.90
10451;DHT22;5273;51.290;6.918;2023-04-24T08:14:13;8.20;99.90
10451;DHT22;5273;51.290;6.918;2023-04-24T08:16:41;6.10;99.90
10451;DHT22;5273;51.290;6.918;2023-04-24T08:19:08;8.00;99.90
10451;DHT22;5273;51.290;6.918;2023-04-24T08:21:35;8.00;99.90
10451;DHT22;5273;51.290;6.918;2023-04-24T08:24:02;8.10;99.90
10451;DHT22;5273;51.290;6.918;2023-04-24T08:26:30;8.10;99.90
10451;DHT22;5273;51.290;6.918;2023-04-24T08:28:57;8.10;99.90
10451;DHT22;5273;51.290;6.918;2023-04-24T08:31:24;8.10;99.90
10451;DHT22;5273;51.290;6.918;2023-04-24T08:33:53;8.10;99.90
10451;DHT22;5273;51.290;6.918;2023-04-24T08:36:19;9.60;99.90
10451;DHT22;5273;51.290;6.918;2023-04-24T08:38:46;8.10;99.90
10451;DHT22;5273;51.290;6.918;2023-04-24T08:41:14;8.20;99.90
10451;DHT22;5273;51.290;6.918;2023-04-24T08:43:41;8.30;99.90
10451;DHT22;5273;51.290;6.918;2023-04-24T08:46:08;8.30;99.90
10451;DHT22;5273;51.290;6.918;2023-04-24T08:48:36;8.40;99.90
10451;DHT22;5273;51.290;6.918;2023-04-24T08:51:07;8.50;99.90
10451;DHT22;5273;51.290;6.918;2023-04-24T08:53:34;8.50;99.90
10451;DHT22;5273;51.290;6.918;2023-04-24T08:56:02;8.60;99.90
10451;DHT22;5273;51.290;6.918;2023-04-24T08:58:30;8.60;99.90
10451;DHT22;5273;51.290;6.918;2023-04-24T09:00:57;8.60;99.90
10451;DHT22;5273;51.290;6.918;2023-04-24T09:03:24;8.70;99.90
10451;DHT22;5273;51.290;6.918;2023-04-24T09:05:52;8.70;99.90
10451;DHT22;5273;51.290;6.918;2023-04-24T09:08:24;8.70;99.90
10451;DHT22;5273;51.290;6.918;2023-04-24T09:10:52;8.70;99.90
10451;DHT22;5273;51.290;6.918;2023-04-24T09:13:19;8.70;99.90
10451;DHT22;5273;51.290;6.918;2023-04-24T09:15:47;8.70;99.90
10451;DHT22;5273;51.290;6.918;2023-04-24T09:18:14;8.70;99.90
10451;DHT22;5273;51.290;6.918;2023-04-24T09:21:00;8.70;99.90
10451;DHT22;5273;51.290;6.918;2023-04-24T09:23:30;8.70;99.90
10451;DHT22;5273;51.290;6.918;2023-04-24T09:25:58;8.70;99.90
10451;DHT22;5273;51.290;6.918;2023-04-24T09:28:26;8.60;99.90
10451;DHT22;5273;51.290;6.918;2023-04-24T09:31:03;8.60;99.90
10451;DHT22;5273;51.290;6.918;2023-04-24T09:33:30;8.60;99.90
10451;DHT22;5273;51.290;6.918;2023-04-24T09:35:57;8.60;99.90
10451;DHT22;5273;51.290;6.918;2023-04-24T09:38:32;8.70;99.90
10451;DHT22;5273;51.290;6.918;2023-04-24T09:41:00;8.70;99.90
10451;DHT22;5273;51.290;6.918;2023-04-24T09:43:28;8.60;99.90
10451;DHT22;5273;51.290;6.918;2023-04-24T09:45:56;8.60;99.90
10451;DHT22;5273;51.290;6.918;2023-04-24T09:48:34;8.60;99.90
10451;DHT22;5273;51.290;6.918;2023-04-24T09:51:02;8.70;99.90
10451;DHT22;5273;51.290;6.918;2023-04-24T09:53:31;8.70;99.90
10451;DHT22;5273;51.290;6.918;2023-04-24T09:56:03;8.70;99.90
10451;DHT22;5273;51.290;6.918;2023-04-24T09:58:35;8.70;99.90
10451;DHT22;5273;51.290;6.918;2023-04-24T10:01:02;8.70;99.90
10451;DHT22;5273;51.290;6.918;2023-04-24T10:03:30;8.70;99.90
10451;DHT22;5273;51.290;6.918;2023-04-24T10:05:58;8.60;99.90
10451;DHT22;5273;51.290;6.918;2023-04-24T10:08:26;8.70;99.90
10451;DHT22;5273;51.290;6.918;2023-04-24T10:10:54;8.90;99.90
10451;DHT22;5273;51.290;6.918;2023-04-24T10:13:21;8.80;99.90
10451;DHT22;5273;51.290;6.918;2023-04-24T10:15:49;8.90;99.90
10451;DHT22;5273;51.290;6.918;2023-04-24T10:18:16;8.90;99.90
10451;DHT22;5273;51.290;6.918;2023-04-24T10:20:43;9.00;99.90
10451;DHT22;5273;51.290;6.918;2023-04-24T10:23:11;9.00;99.90
10451;DHT22;5273;51.290;6.918;2023-04-24T10:25:38;9.30;99.90
10451;DHT22;5273;51.290;6.918;2023-04-24T10:28:06;9.30;99.90
10451;DHT22;5273;51.290;6.918;2023-04-24T10:30:34;9.40;99.90
10451;DHT22;5273;51.290;6.918;2023-04-24T10:33:02;9.40;99.90
10451;DHT22;5273;51.290;6.918;2023-04-24T10:35:31;9.40;99.90
10451;DHT22;5273;51.290;6.918;2023-04-24T10:38:03;9.50;99.90
10451;DHT22;5273;51.290;6.918;2023-04-24T10:40:33;9.50;99.90
10451;DHT22;5273;51.290;6.918;2023-04-24T10:43:03;9.50;99.90
10451;DHT22;5273;51.290;6.918;2023-04-24T10:45:33;9.50;99.90
10451;DHT22;5273;51.290;6.918;2023-04-24T10:48:02;9.60;99.90
10451;DHT22;5273;51.290;6.918;2023-04-24T10:50:30;9.50;99.90
10451;DHT22;5273;51.290;6.918;2023-04-24T10:53:13;9.60;99.90
10451;DHT22;5273;51.290;6.918;2023-04-24T10:55:42;9.80;99.90
10451;DHT22;5273;51.290;6.918;2023-04-24T10:58:09;9.60;99.90
10451;DHT22;5273;51.290;6.918;2023-04-24T11:00:39;9.60;99.90
10451;DHT22;5273;51.290;6.918;2023-04-24T11:03:07;9.70;99.90
10451;DHT22;5273;51.290;6.918;2023-04-24T11:05:50;9.60;99.90
10451;DHT22;5273;51.290;6.918;2023-04-24T11:08:23;9.70;99.90
10451;DHT22;5273;51.290;6.918;2023-04-24T11:10:59;9.70;99.90
10451;DHT22;5273;51.290;6.918;2023-04-24T11:13:29;9.70;99.90
10451;DHT22;5273;51.290;6.918;2023-04-24T11:16:20;9.70;99.90
10451;DHT22;5273;51.290;6.918;2023-04-24T11:18:51;9.90;99.90
10451;DHT22;5273;51.290;6.918;2023-04-24T11:21:20;10.10;99.90
10451;DHT22;5273;51.290;6.918;2023-04-24T11:23:47;10.20;99.90
10451;DHT22;5273;51.290;6.918;2023-04-24T11:26:18;10.30;99.90
10451;DHT22;5273;51.290;6.918;2023-04-24T11:28:46;10.40;99.90
10451;DHT22;5273;51.290;6.918;2023-04-24T11:31:40;10.30;99.90
10451;DHT22;5273;51.290;6.918;2023-04-24T11:34:09;10.30;99.90
10451;DHT22;5273;51.290;6.918;2023-04-24T11:36:36;10.30;99.90
10451;DHT22;5273;51.290;6.918;2023-04-24T11:39:03;10.20;99.90
10451;DHT22;5273;51.290;6.918;2023-04-24T11:41:31;10.20;99.90
10451;DHT22;5273;51.290;6.918;2023-04-24T11:43:58;10.20;99.90
10451;DHT22;5273;51.290;6.918;2023-04-24T11:46:28;10.20;99.90
10451;DHT22;5273;51.290;6.918;2023-04-24T11:48:57;10.20;99.90
10451;DHT22;5273;51.290;6.918;2023-04-24T11:51:25;10.30;99.90
10451;DHT22;5273;51.290;6.918;2023-04-24T11:53:52;10.50;99.90
10451;DHT22;5273;51.290;6.918;2023-04-24T11:56:19;10.60;99.90
10451;DHT22;5273;51.290;6.918;2023-04-24T11:58:47;10.80;99.90
10451;DHT22;5273;51.290;6.918;2023-04-24T12:01:14;11.00;99.90
10451;DHT22;5273;51.290;6.918;2023-04-24T12:03:41;11.00;99.90
10451;DHT22;5273;51.290;6.918;2023-04-24T12:06:13;11.00;99.90
10451;DHT22;5273;51.290;6.918;2023-04-24T12:08:40;10.90;99.90
10451;DHT22;5273;51.290;6.918;2023-04-24T12:11:07;10.80;99.90
10451;DHT22;5273;51.290;6.918;2023-04-24T12:13:35;10.70;99.90
10451;DHT22;5273;51.290;6.918;2023-04-24T12:16:02;10.50;99.90
10451;DHT22;5273;51.290;6.918;2023-04-24T12:18:29;10.50;99.90
10451;DHT22;5273;51.290;6.918;2023-04-24T12:21:16;10.50;99.90
10451;DHT22;5273;51.290;6.918;2023-04-24T12:23:43;10.40;99.90
10451;DHT22;5273;51.290;6.918;2023-04-24T12:26:10;10.50;99.90
10451;DHT22;5273;51.290;6.918;2023-04-24T12:28:38;10.50;99.90
10451;DHT22;5273;51.290;6.918;2023-04-24T12:31:06;10.60;99.90
10451;DHT22;5273;51.290;6.918;2023-04-24T12:33:35;10.50;99.90
10451;DHT22;5273;51.290;6.918;2023-04-24T12:36:02;10.50;99.90
10451;DHT22;5273;51.290;6.918;2023-04-24T12:38:30;10.50;99.90
10451;DHT22;5273;51.290;6.918;2023-04-24T12:41:07;10.50;99.90
10451;DHT22;5273;51.290;6.918;2023-04-24T12:43:34;10.50;99.90
10451;DHT22;5273;51.290;6.918;2023-04-24T12:46:02;10.50;99.90
10451;DHT22;5273;51.290;6.918;2023-04-24T12:48:29;10.60;99.90
10451;DHT22;5273;51.290;6.918;2023-04-24T12:50:57;10.70;99.90
10451;DHT22;5273;51.290;6.918;2023-04-24T12:53:27;10.90;99.90
10451;DHT22;5273;51.290;6.918;2023-04-24T12:55:56;11.10;99.90
10451;DHT22;5273;51.290;6.918;2023-04-24T12:58:23;11.40;99.90
10451;DHT22;5273;51.290;6.918;2023-04-24T13:00:50;11.60;99.90
10451;DHT22;5273;51.290;6.918;2023-04-24T13:03:18;11.80;99.90
10451;DHT22;5273;51.290;6.918;2023-04-24T13:05:45;11.90;99.90
10451;DHT22;5273;51.290;6.918;2023-04-24T13:08:12;12.00;99.90
10451;DHT22;5273;51.290;6.918;2023-04-24T13:10:39;12.10;98.90
10451;DHT22;5273;51.290;6.918;2023-04-24T13:13:08;12.00;98.00
10451;DHT22;5273;51.290;6.918;2023-04-24T13:15:35;11.90;97.70
10451;DHT22;5273;51.290;6.918;2023-04-24T13:18:02;11.80;98.40
10451;DHT22;5273;51.290;6.918;2023-04-24T13:20:29;11.80;98.00
10451;DHT22;5273;51.290;6.918;2023-04-24T13:22:55;11.80;98.20
10451;DHT22;5273;51.290;6.918;2023-04-24T13:25:22;11.80;98.40
10451;DHT22;5273;51.290;6.918;2023-04-24T13:27:50;11.70;97.30
10451;DHT22;5273;51.290;6.918;2023-04-24T13:30:18;11.60;97.50
10451;DHT22;5273;51.290;6.918;2023-04-24T13:32:45;11.60;98.50
10451;DHT22;5273;51.290;6.918;2023-04-24T13:35:12;11.70;98.20
10451;DHT22;5273;51.290;6.918;2023-04-24T13:37:39;11.80;98.00
10451;DHT22;5273;51.290;6.918;2023-04-24T13:40:07;11.80;98.00
10451;DHT22;5273;51.290;6.918;2023-04-24T13:42:34;11.90;97.80
10451;DHT22;5273;51.290;6.918;2023-04-24T13:45:00;11.90;97.50
10451;DHT22;5273;51.290;6.918;2023-04-24T13:47:30;12.00;97.50
10451;DHT22;5273;51.290;6.918;2023-04-24T13:49:57;11.90;97.50
10451;DHT22;5273;51.290;6.918;2023-04-24T13:52:23;12.00;97.40
10451;DHT22;5273;51.290;6.918;2023-04-24T13:54:50;12.00;96.70
10451;DHT22;5273;51.290;6.918;2023-04-24T13:57:17;12.00;97.60
10451;DHT22;5273;51.290;6.918;2023-04-24T13:59:44;12.10;96.70
10451;DHT22;5273;51.290;6.918;2023-04-24T14:02:11;12.00;95.30
10451;DHT22;5273;51.290;6.918;2023-04-24T14:04:39;12.00;95.00
10451;DHT22;5273;51.290;6.918;2023-04-24T14:07:06;11.90;95.00
10451;DHT22;5273;51.290;6.918;2023-04-24T14:09:33;11.80;95.30
10451;DHT22;5273;51.290;6.918;2023-04-24T14:12:00;11.80;95.30
10451;DHT22;5273;51.290;6.918;2023-04-24T14:14:28;11.80;96.10
10451;DHT22;5273;51.290;6.918;2023-04-24T14:16:55;11.90;96.70
10451;DHT22;5273;51.290;6.918;2023-04-24T14:19:22;11.80;95.40
10451;DHT22;5273;51.290;6.918;2023-04-24T14:21:50;11.80;95.70
10451;DHT22;5273;51.290;6.918;2023-04-24T14:24:18;11.90;95.80
10451;DHT22;5273;51.290;6.918;2023-04-24T14:26:45;11.90;95.60
10451;DHT22;5273;51.290;6.918;2023-04-24T14:29:12;11.90;95.40
10451;DHT22;5273;51.290;6.918;2023-04-24T14:31:38;11.90;95.30
10451;DHT22;5273;51.290;6.918;2023-04-24T14:34:05;12.00;95.10
10451;DHT22;5273;51.290;6.918;2023-04-24T14:36:33;12.00;95.80
10451;DHT22;5273;51.290;6.918;2023-04-24T14:39:01;12.10;95.50
10451;DHT22;5273;51.290;6.918;2023-04-24T14:41:31;12.10;94.90
10451;DHT22;5273;51.290;6.918;2023-04-24T14:44:01;12.10;94.90
10451;DHT22;5273;51.290;6.918;2023-04-24T14:46:27;12.10;94.60
10451;DHT22;5273;51.290;6.918;2023-04-24T14:48:54;12.00;95.10
10451;DHT22;5273;51.290;6.918;2023-04-24T14:51:21;12.20;95.60
10451;DHT22;5273;51.290;6.918;2023-04-24T14:53:48;12.20;95.60
10451;DHT22;5273;51.290;6.918;2023-04-24T14:56:16;12.20;94.30
10451;DHT22;5273;51.290;6.918;2023-04-24T14:58:43;12.20;94.40
10451;DHT22;5273;51.290;6.918;2023-04-24T15:01:10;12.20;93.70
10451;DHT22;5273;51.290;6.918;2023-04-24T15:03:37;12.20;93.50
10451;DHT22;5273;51.290;6.918;2023-04-24T15:06:05;12.10;93.20
10451;DHT22;5273;51.290;6.918;2023-04-24T15:08:32;12.10;93.60
10451;DHT22;5273;51.290;6.918;2023-04-24T15:10:58;12.10;93.80
10451;DHT22;5273;51.290;6.918;2023-04-24T15:13:27;12.00;93.60
10451;DHT22;5273;51.290;6.918;2023-04-24T15:15:53;12.00;93.60
10451;DHT22;5273;51.290;6.918;2023-04-24T15:18:20;11.90;93.80
10451;DHT22;5273;51.290;6.918;2023-04-24T15:20:47;12.00;93.50
10451;DHT22;5273;51.290;6.918;2023-04-24T15:23:14;12.10;93.30
10451;DHT22;5273;51.290;6.918;2023-04-24T15:25:41;12.10;93.50
10451;DHT22;5273;51.290;6.918;2023-04-24T15:28:09;12.10;93.80
10451;DHT22;5273;51.290;6.918;2023-04-24T15:30:37;12.20;94.10
10451;DHT22;5273;51.290;6.918;2023-04-24T15:33:04;12.20;94.90
10451;DHT22;5273;51.290;6.918;2023-04-24T15:35:31;12.20;94.00
10451;DHT22;5273;51.290;6.918;2023-04-24T15:37:58;12.20;94.30
10451;DHT22;5273;51.290;6.918;2023-04-24T15:40:25;12.20;94.60
10451;DHT22;5273;51.290;6.918;2023-04-24T15:42:52;12.20;94.90
10451;DHT22;5273;51.290;6.918;2023-04-24T15:45:19;12.20;94.20
10451;DHT22;5273;51.290;6.918;2023-04-24T15:47:47;12.30;94.60
10451;DHT22;5273;51.290;6.918;2023-04-24T15:50:14;12.40;94.50
10451;DHT22;5273;51.290;6.918;2023-04-24T15:52:42;12.40;93.80
10451;DHT22;5273;51.290;6.918;2023-04-24T15:55:09;12.30;94.30
10451;DHT22;5273;51.290;6.918;2023-04-24T15:57:36;12.40;95.40
10451;DHT22;5273;51.290;6.918;2023-04-24T16:00:04;12.40;95.60
10451;DHT22;5273;51.290;6.918;2023-04-24T16:02:31;12.40;94.40
10451;DHT22;5273;51.290;6.918;2023-04-24T16:05:00;12.30;94.70
10451;DHT22;5273;51.290;6.918;2023-04-24T16:07:26;12.20;94.60
10451;DHT22;5273;51.290;6.918;2023-04-24T16:09:53;12.20;95.00
10451;DHT22;5273;51.290;6.918;2023-04-24T16:12:20;12.10;95.10
10451;DHT22;5273;51.290;6.918;2023-04-24T16:14:47;12.00;96.00
10451;DHT22;5273;51.290;6.918;2023-04-24T16:17:14;12.00;97.20
10451;DHT22;5273;51.290;6.918;2023-04-24T16:19:40;12.10;97.10
10451;DHT22;5273;51.290;6.918;2023-04-24T16:22:08;12.00;96.70
10451;DHT22;5273;51.290;6.918;2023-04-24T16:24:35;12.10;96.80